createdAt,value
2022-10-22T00:01:21.117Z,100534.91
2022-10-22T00:03:48.906Z,100550.47
2022-10-22T00:06:16.749Z,100564.13
2022-10-22T00:08:44.603Z,100548.13
2022-10-22T00:11:14.547Z,100550.50
2022-10-22T00:13:43.347Z,100553.56
2022-10-22T00:16:11.197Z,100556.91
2022-10-22T00:18:40.778Z,100544.97
2022-10-22T00:21:09.228Z,100553.97
2022-10-22T00:23:37.174Z,100556.34
2022-10-22T00:26:05.321Z,100536.66
2022-10-22T00:28:33.132Z,100545.25
2022-10-22T00:31:02.390Z,100545.81
2022-10-22T00:33:30.786Z,100523.38
2022-10-22T00:35:59.998Z,100513.81
2022-10-22T00:38:27.817Z,100513.00
2022-10-22T00:40:55.768Z,100517.72
2022-10-22T00:43:23.607Z,100506.16
2022-10-22T00:45:51.493Z,100516.47
2022-10-22T00:48:23.042Z,100504.38
2022-10-22T00:50:56.474Z,100510.56
2022-10-22T00:53:30.701Z,100515.16
2022-10-22T00:55:59.039Z,100525.56
2022-10-22T00:58:31.991Z,100527.44
2022-10-22T01:01:00.498Z,100532.69
2022-10-22T01:03:28.950Z,100531.84
2022-10-22T01:05:59.688Z,100539.78
2022-10-22T01:08:38.188Z,100556.50
2022-10-22T01:11:16.053Z,100567.38
2022-10-22T01:13:51.024Z,100552.59
2022-10-22T01:16:26.691Z,100546.03
2022-10-22T01:19:02.592Z,100556.50
2022-10-22T01:21:36.311Z,100558.59
2022-10-22T01:24:36.967Z,100555.09
2022-10-22T01:27:16.367Z,100542.63
2022-10-22T01:29:50.814Z,100540.91
2022-10-22T01:32:22.361Z,100547.50
2022-10-22T01:34:56.729Z,100534.41
2022-10-22T01:37:27.017Z,100523.69
2022-10-22T01:39:55.257Z,100531.75
2022-10-22T01:42:23.080Z,100526.88
2022-10-22T01:44:52.448Z,100534.94
2022-10-22T01:47:33.502Z,100538.31
2022-10-22T01:50:17.757Z,100523.56
2022-10-22T01:52:58.985Z,100534.66
2022-10-22T01:55:33.842Z,100533.88
2022-10-22T01:58:16.251Z,100540.50
2022-10-22T02:00:51.763Z,100544.09
2022-10-22T02:03:25.685Z,100550.63
2022-10-22T02:05:56.633Z,100563.00
2022-10-22T02:08:29.221Z,100557.56
2022-10-22T02:10:58.835Z,100557.88
2022-10-22T02:13:29.973Z,100555.53
2022-10-22T02:16:01.133Z,100558.19
2022-10-22T02:18:36.287Z,100550.09
2022-10-22T02:23:41.357Z,100556.34
2022-10-22T02:26:16.055Z,100551.78
2022-10-22T02:28:50.942Z,100548.97
2022-10-22T02:31:24.497Z,100541.63
2022-10-22T02:33:56.749Z,100533.53
2022-10-22T02:36:25.248Z,100541.75
2022-10-22T02:38:53.953Z,100538.81
2022-10-22T02:41:22.059Z,100541.47
2022-10-22T02:43:52.341Z,100534.81
2022-10-22T02:46:21.827Z,100531.34
2022-10-22T02:48:49.643Z,100531.72
2022-10-22T02:51:17.758Z,100536.31
2022-10-22T02:53:45.640Z,100541.88
2022-10-22T02:56:14.195Z,100539.66
2022-10-22T02:58:41.986Z,100547.16
2022-10-22T03:01:12.383Z,100556.34
2022-10-22T03:03:44.443Z,100557.47
2022-10-22T03:06:12.265Z,100549.28
2022-10-22T03:08:40.070Z,100539.09
2022-10-22T03:11:08.264Z,100539.63
2022-10-22T03:13:36.077Z,100535.63
2022-10-22T03:16:03.867Z,100530.88
2022-10-22T03:18:31.851Z,100538.94
2022-10-22T03:21:07.104Z,100532.25
2022-10-22T03:23:35.002Z,100529.72
2022-10-22T03:26:03.128Z,100526.81
2022-10-22T03:28:31.066Z,100536.81
2022-10-22T03:30:58.926Z,100536.50
2022-10-22T03:33:26.696Z,100538.06
2022-10-22T03:35:54.533Z,100544.72
2022-10-22T03:38:23.678Z,100543.53
2022-10-22T03:40:51.740Z,100536.25
2022-10-22T03:43:19.624Z,100549.44
2022-10-22T03:45:47.396Z,100549.97
2022-10-22T03:48:15.369Z,100551.25
2022-10-22T03:50:43.156Z,100555.25
2022-10-22T03:53:10.950Z,100547.78
2022-10-22T03:55:41.835Z,100546.91
2022-10-22T03:58:09.680Z,100552.50
2022-10-22T04:00:37.761Z,100553.88
2022-10-22T04:03:05.774Z,100551.38
2022-10-22T04:05:33.970Z,100553.31
2022-10-22T04:08:01.727Z,100559.69
2022-10-22T04:10:29.481Z,100566.91
2022-10-22T04:12:58.596Z,100569.97
2022-10-22T04:15:30.256Z,100567.09
2022-10-22T04:17:58.013Z,100562.75
2022-10-22T04:20:25.759Z,100572.75
2022-10-22T04:22:53.481Z,100580.97
2022-10-22T04:25:21.283Z,100586.34
2022-10-22T04:27:49.123Z,100581.75
2022-10-22T04:30:18.334Z,100598.34
2022-10-22T04:32:46.161Z,100601.28
2022-10-22T04:35:14.047Z,100607.53
2022-10-22T04:37:42.310Z,100599.88
2022-10-22T04:40:11.963Z,100589.91
2022-10-22T04:42:39.743Z,100593.25
2022-10-22T04:45:08.398Z,100590.28
2022-10-22T04:47:37.669Z,100593.19
2022-10-22T04:50:06.589Z,100594.84
2022-10-22T04:52:34.371Z,100587.38
2022-10-22T04:55:02.112Z,100590.28
2022-10-22T04:57:30.876Z,100592.91
2022-10-22T04:59:58.725Z,100587.63
2022-10-22T05:02:26.494Z,100586.28
2022-10-22T05:04:55.598Z,100580.97
2022-10-22T05:07:23.817Z,100589.28
2022-10-22T05:09:51.656Z,100583.34
2022-10-22T05:12:19.415Z,100570.97
2022-10-22T05:14:47.234Z,100574.81
2022-10-22T05:17:15.015Z,100585.63
2022-10-22T05:19:42.781Z,100589.50
2022-10-22T05:22:12.013Z,100593.81
2022-10-22T05:24:40.032Z,100590.84
2022-10-22T05:27:07.871Z,100600.44
2022-10-22T05:29:35.772Z,100596.97
2022-10-22T05:32:03.529Z,100603.63
2022-10-22T05:34:33.310Z,100614.03
2022-10-22T05:37:01.116Z,100598.25
2022-10-22T05:39:36.553Z,100602.75
2022-10-22T05:42:04.504Z,100604.19
2022-10-22T05:44:32.417Z,100597.63
2022-10-22T05:47:00.277Z,100601.22
2022-10-22T05:49:28.086Z,100600.06
2022-10-22T05:51:56.076Z,100605.50
2022-10-22T05:54:23.962Z,100617.41
2022-10-22T05:56:53.289Z,100636.81
2022-10-22T05:59:21.111Z,100635.72
2022-10-22T06:01:50.066Z,100643.41
2022-10-22T06:04:17.947Z,100648.28
2022-10-22T06:06:48.465Z,100638.81
2022-10-22T06:09:20.445Z,100634.13
2022-10-22T06:11:49.551Z,100631.41
2022-10-22T06:14:19.524Z,100621.06
2022-10-22T06:16:47.392Z,100619.19
2022-10-22T06:19:17.075Z,100613.09
2022-10-22T06:21:45.578Z,100622.47
2022-10-22T06:24:13.583Z,100624.66
2022-10-22T06:26:41.977Z,100626.31
2022-10-22T06:29:10.009Z,100636.13
2022-10-22T06:31:39.122Z,100650.19
2022-10-22T06:34:08.829Z,100651.31
2022-10-22T06:36:37.455Z,100656.31
2022-10-22T06:39:05.912Z,100657.75
2022-10-22T06:41:33.839Z,100663.09
2022-10-22T06:44:01.657Z,100661.97
2022-10-22T06:46:29.999Z,100654.34
2022-10-22T06:49:02.623Z,100653.75
2022-10-22T06:51:31.050Z,100659.72
2022-10-22T06:53:59.570Z,100665.84
2022-10-22T06:56:29.315Z,100676.59
2022-10-22T06:58:58.870Z,100669.19
2022-10-22T07:01:28.376Z,100669.63
2022-10-22T07:03:56.705Z,100660.81
2022-10-22T07:06:28.209Z,100666.81
2022-10-22T07:08:57.290Z,100660.44
2022-10-22T07:11:27.502Z,100666.28
2022-10-22T07:13:56.352Z,100667.69
2022-10-22T07:16:28.165Z,100673.81
2022-10-22T07:19:00.657Z,100668.41
2022-10-22T07:21:30.965Z,100673.81
2022-10-22T07:23:59.355Z,100670.78
2022-10-22T07:26:30.694Z,100674.00
2022-10-22T07:28:58.676Z,100672.72
2022-10-22T07:31:26.728Z,100673.44
2022-10-22T07:33:54.552Z,100682.81
2022-10-22T07:36:22.424Z,100675.97
2022-10-22T07:38:55.946Z,100683.81
2022-10-22T07:41:24.603Z,100679.09
2022-10-22T07:43:52.748Z,100694.00
2022-10-22T07:46:21.243Z,100700.44
2022-10-22T07:48:50.586Z,100700.84
2022-10-22T07:51:18.812Z,100707.16
2022-10-22T07:53:46.632Z,100708.53
2022-10-22T07:56:15.726Z,100699.59
2022-10-22T07:58:43.567Z,100701.13
2022-10-22T08:01:11.451Z,100700.31
2022-10-22T08:03:39.324Z,100698.31
2022-10-22T08:06:07.889Z,100693.59
2022-10-22T08:08:35.708Z,100701.66
2022-10-22T08:11:03.750Z,100695.69
2022-10-22T08:13:33.049Z,100707.22
2022-10-22T08:16:01.554Z,100714.75
2022-10-22T08:18:29.795Z,100712.09
2022-10-22T08:20:57.685Z,100709.50
2022-10-22T08:23:27.686Z,100710.63
2022-10-22T08:25:57.011Z,100699.09
2022-10-22T08:28:25.576Z,100697.81
2022-10-22T08:30:54.791Z,100706.31
2022-10-22T08:33:25.298Z,100708.28
2022-10-22T08:35:53.826Z,100716.50
2022-10-22T08:38:21.717Z,100723.03
2022-10-22T08:40:52.555Z,100718.16
2022-10-22T08:43:35.461Z,100728.59
2022-10-22T08:46:18.259Z,100733.22
2022-10-22T08:48:49.289Z,100729.72
2022-10-22T08:51:20.099Z,100732.38
2022-10-22T08:54:06.579Z,100732.41
2022-10-22T08:56:37.292Z,100733.22
2022-10-22T08:59:12.401Z,100730.31
2022-10-22T09:01:47.792Z,100732.66
2022-10-22T09:04:25.349Z,100728.50
2022-10-22T09:06:54.770Z,100741.03
2022-10-22T09:09:23.054Z,100741.72
2022-10-22T09:11:52.347Z,100738.81
2022-10-22T09:14:22.996Z,100744.22
2022-10-22T09:17:10.601Z,100734.47
2022-10-22T09:19:49.326Z,100743.41
2022-10-22T09:22:29.167Z,100744.63
2022-10-22T09:25:00.577Z,100748.25
2022-10-22T09:27:30.314Z,100748.81
2022-10-22T09:29:58.365Z,100743.53
2022-10-22T09:32:27.616Z,100741.13
2022-10-22T09:34:58.031Z,100744.78
2022-10-22T09:37:29.791Z,100749.25
2022-10-22T09:40:00.019Z,100749.09
2022-10-22T09:42:27.839Z,100752.72
2022-10-22T09:44:58.371Z,100759.81
2022-10-22T09:48:00.541Z,100760.75
2022-10-22T09:50:29.496Z,100761.88
2022-10-22T09:53:07.329Z,100764.06
2022-10-22T09:55:35.160Z,100763.75
2022-10-22T09:58:03.012Z,100763.84
2022-10-22T10:00:31.505Z,100761.53
2022-10-22T10:03:01.267Z,100764.34
2022-10-22T10:05:32.130Z,100761.50
2022-10-22T10:08:01.781Z,100762.34
2022-10-22T10:10:38.115Z,100759.56
2022-10-22T10:13:23.169Z,100771.63
2022-10-22T10:15:55.982Z,100769.00
2022-10-22T10:18:35.139Z,100765.00
2022-10-22T10:21:11.384Z,100765.72
2022-10-22T10:23:51.402Z,100766.28
2022-10-22T10:26:24.814Z,100769.47
2022-10-22T10:29:06.325Z,100772.63
2022-10-22T10:31:45.474Z,100773.09
2022-10-22T10:34:27.478Z,100766.22
2022-10-22T10:37:05.612Z,100765.19
2022-10-22T10:39:57.056Z,100776.28
2022-10-22T10:42:33.608Z,100770.88
2022-10-22T10:45:13.020Z,100771.19
2022-10-22T10:48:02.183Z,100766.50
2022-10-22T10:50:40.241Z,100770.22
2022-10-22T10:53:18.880Z,100766.97
2022-10-22T10:55:58.570Z,100761.09
2022-10-22T10:58:35.824Z,100761.56
2022-10-22T11:01:13.787Z,100771.13
2022-10-22T11:04:02.635Z,100777.34
2022-10-22T11:06:35.145Z,100778.69
2022-10-22T11:09:07.679Z,100781.19
2022-10-22T11:11:39.701Z,100783.91
2022-10-22T11:14:14.957Z,100772.91
2022-10-22T11:16:47.436Z,100775.22
2022-10-22T11:19:22.818Z,100770.53
2022-10-22T11:22:07.127Z,100773.06
2022-10-22T11:24:41.554Z,100777.09
2022-10-22T11:27:17.846Z,100770.84
2022-10-22T11:29:50.426Z,100778.13
2022-10-22T11:32:23.643Z,100772.69
2022-10-22T11:34:55.479Z,100778.03
2022-10-22T11:37:27.420Z,100765.75
2022-10-22T11:39:59.656Z,100774.94
2022-10-22T11:42:34.618Z,100773.81
2022-10-22T11:45:05.227Z,100784.09
2022-10-22T11:47:35.636Z,100782.09
2022-10-22T11:50:21.761Z,100780.22
2022-10-22T11:52:56.461Z,100781.44
2022-10-22T11:55:36.712Z,100784.28
2022-10-22T11:58:33.653Z,100781.47
2022-10-22T12:01:25.262Z,100778.09
2022-10-22T12:04:14.813Z,100775.69
2022-10-22T12:07:01.873Z,100771.28
2022-10-22T12:09:32.727Z,100782.56
2022-10-22T12:12:15.937Z,100777.97
2022-10-22T12:14:59.357Z,100776.91
2022-10-22T12:17:29.797Z,100777.72
2022-10-22T12:20:05.801Z,100779.91
2022-10-22T12:22:37.466Z,100787.06
2022-10-22T12:25:17.072Z,100792.06
2022-10-22T12:27:45.050Z,100780.91
2022-10-22T12:30:21.848Z,100785.91
2022-10-22T12:32:49.611Z,100782.91
2022-10-22T12:35:23.761Z,100777.59
2022-10-22T12:37:53.926Z,100783.75
2022-10-22T12:40:23.561Z,100787.59
2022-10-22T12:42:54.349Z,100792.66
2022-10-22T12:45:23.621Z,100786.59
2022-10-22T12:47:53.498Z,100788.63
2022-10-22T12:50:27.653Z,100787.44
2022-10-22T12:52:56.985Z,100784.81
2022-10-22T12:55:26.731Z,100778.63
2022-10-22T12:57:54.757Z,100789.88
2022-10-22T13:00:25.639Z,100779.53
2022-10-22T13:02:54.679Z,100782.84
2022-10-22T13:05:27.192Z,100777.81
2022-10-22T13:08:03.922Z,100779.03
2022-10-22T13:10:34.592Z,100779.16
2022-10-22T13:13:03.952Z,100780.38
2022-10-22T13:15:37.389Z,100773.66
2022-10-22T13:18:08.426Z,100787.56
2022-10-22T13:20:38.461Z,100785.44
2022-10-22T13:23:19.746Z,100786.56
2022-10-22T13:26:02.320Z,100782.63
2022-10-22T13:28:33.136Z,100790.94
2022-10-22T13:31:02.504Z,100791.00
2022-10-22T13:33:33.933Z,100790.41
2022-10-22T13:36:01.871Z,100789.16
2022-10-22T13:38:31.614Z,100789.66
2022-10-22T13:40:59.995Z,100785.84
2022-10-22T13:43:27.864Z,100782.94
2022-10-22T13:45:58.957Z,100785.84
2022-10-22T13:48:29.051Z,100792.44
2022-10-22T13:50:56.973Z,100786.88
2022-10-22T13:53:27.302Z,100788.25
2022-10-22T13:55:57.110Z,100794.06
2022-10-22T13:58:25.878Z,100793.78
2022-10-22T14:00:56.963Z,100791.25
2022-10-22T14:03:27.807Z,100793.34
2022-10-22T14:05:55.687Z,100803.97
2022-10-22T14:08:25.753Z,100804.66
2022-10-22T14:10:54.013Z,100812.50
2022-10-22T14:13:23.435Z,100811.00
2022-10-22T14:15:53.169Z,100807.16
2022-10-22T14:18:26.485Z,100816.84
2022-10-22T14:20:55.926Z,100812.63
2022-10-22T14:23:26.221Z,100810.03
2022-10-22T14:25:54.364Z,100809.16
2022-10-22T14:28:23.815Z,100809.81
2022-10-22T14:30:52.402Z,100813.81
2022-10-22T14:33:27.293Z,100816.34
2022-10-22T14:36:00.082Z,100819.03
2022-10-22T14:38:28.395Z,100820.16
2022-10-22T14:40:56.271Z,100821.50
2022-10-22T14:43:27.464Z,100826.31
2022-10-22T14:45:56.262Z,100819.53
2022-10-22T14:48:24.280Z,100818.00
2022-10-22T14:50:52.238Z,100820.66
2022-10-22T14:53:20.057Z,100826.00
2022-10-22T14:55:49.176Z,100831.66
2022-10-22T14:58:17.115Z,100833.63
2022-10-22T15:00:46.313Z,100833.16
2022-10-22T15:03:14.136Z,100825.13
2022-10-22T15:05:44.330Z,100835.78
2022-10-22T15:08:13.605Z,100832.63
2022-10-22T15:10:41.906Z,100833.81
2022-10-22T15:13:10.038Z,100836.16
2022-10-22T15:15:39.843Z,100829.47
2022-10-22T15:18:09.280Z,100833.63
2022-10-22T15:20:37.118Z,100835.31
2022-10-22T15:23:04.955Z,100831.16
2022-10-22T15:25:33.019Z,100835.78
2022-10-22T15:28:09.126Z,100843.16
2022-10-22T15:30:37.792Z,100844.28
2022-10-22T15:33:05.899Z,100847.75
2022-10-22T15:35:35.232Z,100849.25
2022-10-22T15:38:06.385Z,100853.06
2022-10-22T15:40:34.290Z,100849.19
2022-10-22T15:43:02.142Z,100854.56
2022-10-22T15:45:30.138Z,100857.38
2022-10-22T15:47:58.370Z,100850.88
2022-10-22T15:50:26.135Z,100861.34
2022-10-22T15:52:55.684Z,100858.63
2022-10-22T15:55:23.534Z,100859.09
2022-10-22T15:57:57.106Z,100853.00
2022-10-22T16:00:27.135Z,100859.03
2022-10-22T16:02:55.637Z,100867.59
2022-10-22T16:05:23.499Z,100860.19
2022-10-22T16:07:53.095Z,100859.34
2022-10-22T16:10:22.801Z,100855.06
2022-10-22T16:12:51.691Z,100860.13
2022-10-22T16:15:19.756Z,100858.34
2022-10-22T16:17:47.618Z,100865.91
2022-10-22T16:20:15.486Z,100864.38
2022-10-22T16:22:43.526Z,100869.31
2022-10-22T16:25:11.455Z,100868.69
2022-10-22T16:27:40.628Z,100875.03
2022-10-22T16:30:09.135Z,100874.25
2022-10-22T16:32:37.058Z,100869.06
2022-10-22T16:35:05.304Z,100878.00
2022-10-22T16:37:33.173Z,100873.66
2022-10-22T16:40:04.428Z,100878.00
2022-10-22T16:42:35.925Z,100881.38
2022-10-22T16:45:05.758Z,100879.72
2022-10-22T16:47:33.735Z,100883.78
2022-10-22T16:50:01.604Z,100891.88
2022-10-22T16:52:29.473Z,100896.47
2022-10-22T16:54:58.091Z,100894.97
2022-10-22T16:57:26.364Z,100899.22
2022-10-22T16:59:54.347Z,100905.81
2022-10-22T17:02:23.561Z,100905.25
2022-10-22T17:04:51.398Z,100901.91
2022-10-22T17:07:19.199Z,100908.47
2022-10-22T17:09:47.029Z,100912.25
2022-10-22T17:12:14.919Z,100920.06
2022-10-22T17:14:42.737Z,100920.88
2022-10-22T17:17:10.495Z,100923.38
2022-10-22T17:19:39.746Z,100926.88
2022-10-22T17:22:07.541Z,100924.03
2022-10-22T17:24:35.563Z,100933.09
2022-10-22T17:29:32.343Z,100943.06
2022-10-22T17:32:01.387Z,100933.56
2022-10-22T17:34:33.013Z,100946.22
2022-10-22T17:37:02.231Z,100938.47
2022-10-22T17:39:30.165Z,100948.66
2022-10-22T17:41:58.151Z,100946.69
2022-10-22T17:44:26.097Z,100951.03
2022-10-22T17:46:53.967Z,100953.78
2022-10-22T17:49:22.026Z,100960.22
2022-10-22T17:51:49.946Z,100962.44
2022-10-22T17:54:19.286Z,100952.91
2022-10-22T17:56:47.115Z,100962.84
2022-10-22T17:59:17.125Z,100961.59
2022-10-22T18:01:47.696Z,100963.09
2022-10-22T18:04:17.335Z,100966.22
2022-10-22T18:06:46.679Z,100964.84
2022-10-22T18:09:18.552Z,100963.44
2022-10-22T18:11:49.737Z,100966.38
2022-10-22T18:14:18.265Z,100963.56
2022-10-22T18:16:46.830Z,100966.34
2022-10-22T18:19:17.149Z,100961.31
2022-10-22T18:21:45.090Z,100962.88
2022-10-22T18:24:21.911Z,100975.28
2022-10-22T18:26:51.074Z,100972.78
2022-10-22T18:29:20.693Z,100972.47
2022-10-22T18:31:49.333Z,100969.50
2022-10-22T18:34:20.426Z,100968.84
2022-10-22T18:36:51.176Z,100972.00
2022-10-22T18:39:19.434Z,100968.97
2022-10-22T18:41:47.421Z,100974.16
2022-10-22T18:44:17.154Z,100978.19
2022-10-22T18:46:45.358Z,100968.53
2022-10-22T18:49:18.244Z,100975.94
2022-10-22T18:51:48.613Z,100965.19
2022-10-22T18:54:23.887Z,100975.13
2022-10-22T18:56:53.081Z,100972.91
2022-10-22T18:59:24.715Z,100975.84
2022-10-22T19:01:53.804Z,100971.09
2022-10-22T19:04:22.040Z,100976.84
2022-10-22T19:06:50.055Z,100974.72
2022-10-22T19:09:18.786Z,100975.28
2022-10-22T19:11:46.972Z,100980.19
2022-10-22T19:14:19.196Z,100985.34
2022-10-22T19:16:48.903Z,100984.78
2022-10-22T19:19:19.707Z,100977.94
2022-10-22T19:21:47.653Z,100985.19
2022-10-22T19:24:16.795Z,100984.06
2022-10-22T19:26:45.517Z,100991.41
2022-10-22T19:29:17.193Z,100990.59
2022-10-22T19:31:45.952Z,100995.38
2022-10-22T19:34:15.237Z,100994.66
2022-10-22T19:36:43.158Z,101002.06
2022-10-22T19:39:10.954Z,101000.13
2022-10-22T19:41:38.806Z,101011.38
2022-10-22T19:44:06.574Z,101013.06
2022-10-22T19:46:34.638Z,101010.31
2022-10-22T19:49:04.410Z,101012.00
2022-10-22T19:51:34.580Z,101019.63
2022-10-22T19:54:04.261Z,101020.75
2022-10-22T19:56:33.527Z,101022.78
2022-10-22T19:59:01.888Z,101019.19
2022-10-22T20:01:31.793Z,101025.19
2022-10-22T20:04:01.290Z,101033.53
2022-10-22T20:06:29.199Z,101021.97
2022-10-22T20:08:58.751Z,101029.28
2022-10-22T20:11:28.933Z,101032.41
2022-10-22T20:13:57.803Z,101039.16
2022-10-22T20:16:28.425Z,101042.19
2022-10-22T20:19:00.206Z,101043.78
2022-10-22T20:21:28.752Z,101045.00
2022-10-22T20:23:57.992Z,101057.28
2022-10-22T20:26:28.061Z,101055.13
2022-10-22T20:28:57.011Z,101052.13
2022-10-22T20:31:27.807Z,101053.94
2022-10-22T20:33:57.397Z,101053.13
2022-10-22T20:36:26.577Z,101059.22
2022-10-22T20:38:59.387Z,101059.22
2022-10-22T20:41:28.906Z,101065.31
2022-10-22T20:43:56.904Z,101056.53
2022-10-22T20:46:27.182Z,101061.13
2022-10-22T20:48:57.372Z,101068.88
2022-10-22T20:51:25.216Z,101068.53
2022-10-22T20:53:52.989Z,101075.50
2022-10-22T20:56:21.219Z,101075.59
2022-10-22T20:58:53.772Z,101075.38
2022-10-22T21:01:24.010Z,101082.94
2022-10-22T21:03:53.293Z,101083.09
2022-10-22T21:06:23.355Z,101081.53
2022-10-22T21:08:52.309Z,101082.81
2022-10-22T21:11:21.180Z,101080.84
2022-10-22T21:13:50.442Z,101083.09
2022-10-22T21:16:20.008Z,101087.41
2022-10-22T21:18:48.368Z,101099.75
2022-10-22T21:21:17.060Z,101097.25
2022-10-22T21:23:44.944Z,101094.25
2022-10-22T21:26:12.956Z,101093.13
2022-10-22T21:28:41.011Z,101097.06
2022-10-22T21:31:15.256Z,101092.19
2022-10-22T21:33:42.896Z,101101.56
2022-10-22T21:36:10.846Z,101103.34
2022-10-22T21:38:39.370Z,101097.78
2022-10-22T21:41:08.240Z,101104.88
2022-10-22T21:43:38.494Z,101106.94
2022-10-22T21:46:08.530Z,101105.34
2022-10-22T21:48:38.605Z,101105.56
2022-10-22T21:51:08.099Z,101117.63
2022-10-22T21:53:36.313Z,101114.25
2022-10-22T21:56:04.884Z,101120.00
2022-10-22T21:58:35.084Z,101122.94
2022-10-22T22:01:03.323Z,101119.06
2022-10-22T22:03:31.327Z,101126.13
2022-10-22T22:06:01.907Z,101114.56
2022-10-22T22:08:29.768Z,101123.66
2022-10-22T22:11:03.006Z,101119.72
2022-10-22T22:13:31.404Z,101116.91
2022-10-22T22:16:03.163Z,101113.72
2022-10-22T22:18:31.729Z,101111.75
2022-10-22T22:21:03.975Z,101108.13
2022-10-22T22:23:31.946Z,101101.72
2022-10-22T22:26:00.322Z,101106.75
2022-10-22T22:28:28.350Z,101104.63
2022-10-22T22:30:56.254Z,101106.28
2022-10-22T22:33:24.304Z,101105.56
2022-10-22T22:35:52.529Z,101108.09
2022-10-22T22:38:21.697Z,101104.34
2022-10-22T22:40:49.526Z,101099.00
2022-10-22T22:43:17.331Z,101107.19
2022-10-22T22:45:45.154Z,101106.50
2022-10-22T22:48:12.962Z,101097.53
2022-10-22T22:50:40.929Z,101107.06
2022-10-22T22:53:08.785Z,101099.69
2022-10-22T22:55:37.891Z,101104.50
2022-10-22T22:58:05.695Z,101103.44
2022-10-22T23:00:33.561Z,101101.59
2022-10-22T23:03:01.440Z,101097.78
2022-10-22T23:05:29.264Z,101096.75
2022-10-22T23:07:57.264Z,101101.00
2022-10-22T23:10:25.102Z,101099.94
2022-10-22T23:12:54.347Z,101106.38
2022-10-22T23:15:22.115Z,101102.06
2022-10-22T23:17:49.888Z,101102.13
2022-10-22T23:20:17.932Z,101105.03
2022-10-22T23:22:45.738Z,101109.59
2022-10-22T23:25:13.628Z,101114.66
2022-10-22T23:27:41.649Z,101116.38
2022-10-22T23:30:12.875Z,101124.00
2022-10-22T23:32:40.755Z,101116.06
2022-10-22T23:35:10.312Z,101123.44
2022-10-22T23:37:38.094Z,101114.91
2022-10-22T23:40:07.228Z,101117.81
2022-10-22T23:42:35.085Z,101122.94
2022-10-22T23:45:02.965Z,101116.53
2022-10-22T23:47:32.153Z,101117.63
2022-10-22T23:50:00.033Z,101112.78
2022-10-22T23:52:27.962Z,101115.94
2022-10-22T23:54:55.771Z,101118.38
2022-10-22T23:57:24.114Z,101107.13
2022-10-22T23:59:51.922Z,101107.97
